sensor_id;sensor_type;location;lat;lon;timestamp;pressure;altitude;pressure_sealevel;temperature;humidity
53546;BME280;39432;51.902;10.844;2023-05-07T00:00:22;100145.84;;;9.62;100.00
53546;BME280;39432;51.902;10.844;2023-05-07T00:02:52;100142.03;;;9.40;100.00
53546;BME280;39432;51.902;10.844;2023-05-07T00:05:22;100136.78;;;9.27;100.00
53546;BME280;39432;51.902;10.844;2023-05-07T00:07:54;100139.88;;;9.30;100.00
53546;BME280;39432;51.902;10.844;2023-05-07T00:10:25;100133.22;;;9.38;100.00
53546;BME280;39432;51.902;10.844;2023-05-07T00:12:55;100139.63;;;9.55;100.00
53546;BME280;39432;51.902;10.844;2023-05-07T00:15:25;100136.69;;;9.45;100.00
53546;BME280;39432;51.902;10.844;2023-05-07T00:17:55;100135.63;;;9.46;100.00
53546;BME280;39432;51.902;10.844;2023-05-07T00:20:26;100128.72;;;9.55;100.00
53546;BME280;39432;51.902;10.844;2023-05-07T00:22:58;100130.16;;;9.46;100.00
53546;BME280;39432;51.902;10.844;2023-05-07T00:25:28;100130.13;;;9.69;100.00
53546;BME280;39432;51.902;10.844;2023-05-07T00:27:58;100125.97;;;9.67;100.00
53546;BME280;39432;51.902;10.844;2023-05-07T00:30:30;100135.34;;;9.83;100.00
53546;BME280;39432;51.902;10.844;2023-05-07T00:33:00;100129.19;;;9.75;100.00
53546;BME280;39432;51.902;10.844;2023-05-07T00:35:30;100126.56;;;9.81;100.00
53546;BME280;39432;51.902;10.844;2023-05-07T00:38:02;100117.56;;;9.68;100.00
53546;BME280;39432;51.902;10.844;2023-05-07T00:40:32;100114.19;;;9.90;100.00
53546;BME280;39432;51.902;10.844;2023-05-07T00:43:02;100095.53;;;9.87;100.00
53546;BME280;39432;51.902;10.844;2023-05-07T00:45:33;100099.84;;;9.71;100.00
53546;BME280;39432;51.902;10.844;2023-05-07T00:48:03;100092.13;;;9.80;100.00
53546;BME280;39432;51.902;10.844;2023-05-07T00:50:34;100088.53;;;9.91;100.00
53546;BME280;39432;51.902;10.844;2023-05-07T00:53:06;100085.34;;;9.70;100.00
53546;BME280;39432;51.902;10.844;2023-05-07T00:55:36;100086.38;;;9.93;100.00
53546;BME280;39432;51.902;10.844;2023-05-07T00:58:07;100078.25;;;9.58;100.00
53546;BME280;39432;51.902;10.844;2023-05-07T01:00:36;100083.72;;;9.58;100.00
53546;BME280;39432;51.902;10.844;2023-05-07T01:03:07;100078.34;;;9.74;100.00
53546;BME280;39432;51.902;10.844;2023-05-07T01:05:38;100081.13;;;10.03;100.00
53546;BME280;39432;51.902;10.844;2023-05-07T01:08:10;100083.13;;;10.08;100.00
53546;BME280;39432;51.902;10.844;2023-05-07T01:10:41;100085.00;;;9.79;100.00
53546;BME280;39432;51.902;10.844;2023-05-07T01:13:12;100080.56;;;9.77;100.00
53546;BME280;39432;51.902;10.844;2023-05-07T01:15:43;100078.91;;;9.76;100.00
53546;BME280;39432;51.902;10.844;2023-05-07T01:18:13;100085.22;;;9.65;100.00
53546;BME280;39432;51.902;10.844;2023-05-07T01:20:43;100089.84;;;9.76;100.00
53546;BME280;39432;51.902;10.844;2023-05-07T01:23:15;100086.03;;;9.89;100.00
53546;BME280;39432;51.902;10.844;2023-05-07T01:25:51;100083.22;;;9.72;100.00
53546;BME280;39432;51.902;10.844;2023-05-07T01:28:23;100072.91;;;9.63;100.00
53546;BME280;39432;51.902;10.844;2023-05-07T01:30:59;100070.91;;;9.46;100.00
53546;BME280;39432;51.902;10.844;2023-05-07T01:33:33;100081.31;;;9.73;100.00
53546;BME280;39432;51.902;10.844;2023-05-07T01:36:05;100083.34;;;9.54;100.00
53546;BME280;39432;51.902;10.844;2023-05-07T01:38:39;100084.91;;;9.38;100.00
53546;BME280;39432;51.902;10.844;2023-05-07T01:41:11;100080.16;;;9.57;100.00
53546;BME280;39432;51.902;10.844;2023-05-07T01:43:42;100082.88;;;9.69;100.00
53546;BME280;39432;51.902;10.844;2023-05-07T01:46:12;100084.69;;;9.40;100.00
53546;BME280;39432;51.902;10.844;2023-05-07T01:48:43;100093.09;;;9.50;100.00
53546;BME280;39432;51.902;10.844;2023-05-07T01:51:13;100095.00;;;9.49;100.00
53546;BME280;39432;51.902;10.844;2023-05-07T01:53:45;100103.09;;;9.56;100.00
53546;BME280;39432;51.902;10.844;2023-05-07T01:56:18;100102.44;;;9.77;100.00
53546;BME280;39432;51.902;10.844;2023-05-07T01:58:49;100103.91;;;9.45;100.00
53546;BME280;39432;51.902;10.844;2023-05-07T02:01:19;100102.00;;;9.34;100.00
53546;BME280;39432;51.902;10.844;2023-05-07T02:03:50;100112.91;;;9.22;100.00
53546;BME280;39432;51.902;10.844;2023-05-07T02:06:24;100110.50;;;8.90;100.00
53546;BME280;39432;51.902;10.844;2023-05-07T02:09:01;100108.94;;;8.83;100.00
53546;BME280;39432;51.902;10.844;2023-05-07T02:11:31;100110.84;;;8.94;100.00
53546;BME280;39432;51.902;10.844;2023-05-07T02:14:01;100119.56;;;9.14;100.00
53546;BME280;39432;51.902;10.844;2023-05-07T02:16:31;100117.53;;;8.98;100.00
53546;BME280;39432;51.902;10.844;2023-05-07T02:19:01;100128.75;;;8.90;100.00
53546;BME280;39432;51.902;10.844;2023-05-07T02:21:31;100130.31;;;8.86;100.00
53546;BME280;39432;51.902;10.844;2023-05-07T02:24:03;100135.78;;;8.86;100.00
53546;BME280;39432;51.902;10.844;2023-05-07T02:26:33;100134.63;;;9.05;100.00
53546;BME280;39432;51.902;10.844;2023-05-07T02:29:03;100139.25;;;9.16;100.00
53546;BME280;39432;51.902;10.844;2023-05-07T02:31:33;100147.38;;;9.23;100.00
53546;BME280;39432;51.902;10.844;2023-05-07T02:34:03;100147.59;;;9.33;100.00
53546;BME280;39432;51.902;10.844;2023-05-07T02:36:33;100148.91;;;9.31;100.00
53546;BME280;39432;51.902;10.844;2023-05-07T02:39:10;100149.34;;;9.28;100.00
53546;BME280;39432;51.902;10.844;2023-05-07T02:41:40;100130.59;;;9.19;100.00
53546;BME280;39432;51.902;10.844;2023-05-07T02:44:10;100129.63;;;9.02;100.00
53546;BME280;39432;51.902;10.844;2023-05-07T02:46:40;100136.50;;;8.93;100.00
53546;BME280;39432;51.902;10.844;2023-05-07T02:49:11;100139.63;;;9.08;100.00
53546;BME280;39432;51.902;10.844;2023-05-07T02:51:41;100147.66;;;9.03;100.00
53546;BME280;39432;51.902;10.844;2023-05-07T02:54:21;100150.53;;;9.08;100.00
53546;BME280;39432;51.902;10.844;2023-05-07T02:56:51;100151.88;;;9.29;100.00
53546;BME280;39432;51.902;10.844;2023-05-07T02:59:21;100151.50;;;9.37;100.00
53546;BME280;39432;51.902;10.844;2023-05-07T03:01:50;100144.72;;;9.28;100.00
53546;BME280;39432;51.902;10.844;2023-05-07T03:04:20;100142.22;;;9.03;100.00
53546;BME280;39432;51.902;10.844;2023-05-07T03:06:50;100137.44;;;8.98;100.00
53546;BME280;39432;51.902;10.844;2023-05-07T03:09:23;100137.22;;;9.00;100.00
53546;BME280;39432;51.902;10.844;2023-05-07T03:11:53;100152.03;;;8.92;100.00
53546;BME280;39432;51.902;10.844;2023-05-07T03:14:23;100158.06;;;8.83;100.00
53546;BME280;39432;51.902;10.844;2023-05-07T03:16:53;100167.75;;;8.79;100.00
53546;BME280;39432;51.902;10.844;2023-05-07T03:19:22;100159.47;;;8.74;100.00
53546;BME280;39432;51.902;10.844;2023-05-07T03:21:52;100155.59;;;8.93;100.00
53546;BME280;39432;51.902;10.844;2023-05-07T03:24:24;100151.03;;;8.75;100.00
53546;BME280;39432;51.902;10.844;2023-05-07T03:26:54;100142.84;;;8.45;100.00
53546;BME280;39432;51.902;10.844;2023-05-07T03:29:24;100146.59;;;8.62;100.00
53546;BME280;39432;51.902;10.844;2023-05-07T03:31:54;100151.97;;;8.69;100.00
53546;BME280;39432;51.902;10.844;2023-05-07T03:34:24;100146.41;;;8.76;100.00
53546;BME280;39432;51.902;10.844;2023-05-07T03:36:57;100153.00;;;8.98;100.00
53546;BME280;39432;51.902;10.844;2023-05-07T03:39:29;100142.22;;;9.03;100.00
53546;BME280;39432;51.902;10.844;2023-05-07T03:41:59;100147.63;;;9.45;100.00
53546;BME280;39432;51.902;10.844;2023-05-07T03:44:31;100137.97;;;9.07;100.00
53546;BME280;39432;51.902;10.844;2023-05-07T03:47:03;100126.28;;;9.00;100.00
53546;BME280;39432;51.902;10.844;2023-05-07T03:49:33;100131.13;;;9.40;100.00
53546;BME280;39432;51.902;10.844;2023-05-07T03:52:04;100128.09;;;9.06;100.00
53546;BME280;39432;51.902;10.844;2023-05-07T03:54:36;100126.44;;;9.17;100.00
53546;BME280;39432;51.902;10.844;2023-05-07T03:57:06;100111.78;;;8.88;100.00
53546;BME280;39432;51.902;10.844;2023-05-07T03:59:36;100109.16;;;8.69;100.00
53546;BME280;39432;51.902;10.844;2023-05-07T04:02:08;100106.94;;;8.48;100.00
53546;BME280;39432;51.902;10.844;2023-05-07T04:04:37;100111.91;;;8.51;100.00
53546;BME280;39432;51.902;10.844;2023-05-07T04:07:08;100113.41;;;8.65;100.00
53546;BME280;39432;51.902;10.844;2023-05-07T04:09:44;100113.66;;;8.76;100.00
53546;BME280;39432;51.902;10.844;2023-05-07T04:12:14;100111.53;;;8.78;100.00
53546;BME280;39432;51.902;10.844;2023-05-07T04:14:44;100109.53;;;8.43;100.00
53546;BME280;39432;51.902;10.844;2023-05-07T04:17:14;100120.41;;;8.73;100.00
53546;BME280;39432;51.902;10.844;2023-05-07T04:19:44;100116.28;;;8.70;100.00
53546;BME280;39432;51.902;10.844;2023-05-07T04:22:15;100120.84;;;9.00;100.00
53546;BME280;39432;51.902;10.844;2023-05-07T04:24:50;100122.25;;;8.91;100.00
53546;BME280;39432;51.902;10.844;2023-05-07T04:27:20;100116.94;;;8.96;100.00
53546;BME280;39432;51.902;10.844;2023-05-07T04:29:50;100115.63;;;8.98;100.00
53546;BME280;39432;51.902;10.844;2023-05-07T04:32:23;100114.78;;;8.98;100.00
53546;BME280;39432;51.902;10.844;2023-05-07T04:34:53;100118.97;;;9.12;100.00
53546;BME280;39432;51.902;10.844;2023-05-07T04:37:23;100111.69;;;8.94;100.00
53546;BME280;39432;51.902;10.844;2023-05-07T04:39:56;100106.78;;;8.73;100.00
53546;BME280;39432;51.902;10.844;2023-05-07T04:42:28;100110.41;;;8.97;100.00
53546;BME280;39432;51.902;10.844;2023-05-07T04:45:01;100107.34;;;8.63;100.00
53546;BME280;39432;51.902;10.844;2023-05-07T04:47:34;100115.88;;;8.67;100.00
53546;BME280;39432;51.902;10.844;2023-05-07T04:50:05;100124.75;;;8.92;100.00
53546;BME280;39432;51.902;10.844;2023-05-07T04:52:36;100131.06;;;9.16;100.00
53546;BME280;39432;51.902;10.844;2023-05-07T04:55:09;100125.97;;;9.32;100.00
53546;BME280;39432;51.902;10.844;2023-05-07T04:57:40;100122.53;;;9.24;100.00
53546;BME280;39432;51.902;10.844;2023-05-07T05:00:12;100112.44;;;9.02;100.00
53546;BME280;39432;51.902;10.844;2023-05-07T05:02:44;100129.28;;;9.34;100.00
53546;BME280;39432;51.902;10.844;2023-05-07T05:05:18;100126.47;;;9.29;100.00
53546;BME280;39432;51.902;10.844;2023-05-07T05:07:52;100126.81;;;9.44;100.00
53546;BME280;39432;51.902;10.844;2023-05-07T05:10:25;100117.53;;;9.33;100.00
53546;BME280;39432;51.902;10.844;2023-05-07T05:12:55;100128.84;;;9.60;100.00
53546;BME280;39432;51.902;10.844;2023-05-07T05:15:26;100118.75;;;9.26;100.00
53546;BME280;39432;51.902;10.844;2023-05-07T05:17:59;100119.22;;;9.46;100.00
53546;BME280;39432;51.902;10.844;2023-05-07T05:20:30;100126.94;;;9.49;100.00
53546;BME280;39432;51.902;10.844;2023-05-07T05:23:00;100116.72;;;9.33;100.00
53546;BME280;39432;51.902;10.844;2023-05-07T05:25:33;100124.22;;;9.72;100.00
53546;BME280;39432;51.902;10.844;2023-05-07T05:28:04;100114.59;;;9.58;100.00
53546;BME280;39432;51.902;10.844;2023-05-07T05:30:34;100105.44;;;9.64;100.00
53546;BME280;39432;51.902;10.844;2023-05-07T05:33:04;100110.06;;;9.64;100.00
53546;BME280;39432;51.902;10.844;2023-05-07T05:35:33;100102.13;;;9.62;100.00
53546;BME280;39432;51.902;10.844;2023-05-07T05:38:06;100104.31;;;9.89;100.00
53546;BME280;39432;51.902;10.844;2023-05-07T05:40:40;100102.59;;;9.59;100.00
53546;BME280;39432;51.902;10.844;2023-05-07T05:43:10;100097.81;;;9.66;100.00
53546;BME280;39432;51.902;10.844;2023-05-07T05:45:40;100101.13;;;9.92;100.00
53546;BME280;39432;51.902;10.844;2023-05-07T05:48:10;100099.47;;;9.91;100.00
53546;BME280;39432;51.902;10.844;2023-05-07T05:50:42;100106.97;;;9.84;100.00
53546;BME280;39432;51.902;10.844;2023-05-07T05:53:13;100108.28;;;9.69;100.00
53546;BME280;39432;51.902;10.844;2023-05-07T05:55:45;100105.88;;;9.85;100.00
53546;BME280;39432;51.902;10.844;2023-05-07T05:58:16;100100.66;;;9.83;100.00
53546;BME280;39432;51.902;10.844;2023-05-07T06:00:51;100108.84;;;9.95;100.00
53546;BME280;39432;51.902;10.844;2023-05-07T06:03:24;100117.28;;;9.82;100.00
53546;BME280;39432;51.902;10.844;2023-05-07T06:05:56;100115.25;;;9.89;100.00
53546;BME280;39432;51.902;10.844;2023-05-07T06:08:29;100120.50;;;9.90;100.00
53546;BME280;39432;51.902;10.844;2023-05-07T06:11:02;100118.97;;;9.59;100.00
53546;BME280;39432;51.902;10.844;2023-05-07T06:13:35;100130.13;;;9.69;100.00
53546;BME280;39432;51.902;10.844;2023-05-07T06:16:06;100147.13;;;9.48;100.00
53546;BME280;39432;51.902;10.844;2023-05-07T06:18:36;100135.50;;;9.53;100.00
53546;BME280;39432;51.902;10.844;2023-05-07T06:21:06;100125.59;;;9.87;100.00
53546;BME280;39432;51.902;10.844;2023-05-07T06:23:37;100125.34;;;10.00;100.00
53546;BME280;39432;51.902;10.844;2023-05-07T06:26:10;100111.69;;;9.88;100.00
53546;BME280;39432;51.902;10.844;2023-05-07T06:28:43;100111.47;;;9.90;100.00
53546;BME280;39432;51.902;10.844;2023-05-07T06:31:15;100115.38;;;9.94;100.00
53546;BME280;39432;51.902;10.844;2023-05-07T06:33:55;100110.13;;;10.04;100.00
53546;BME280;39432;51.902;10.844;2023-05-07T06:36:31;100109.13;;;9.58;100.00
53546;BME280;39432;51.902;10.844;2023-05-07T06:39:10;100121.56;;;9.77;100.00
53546;BME280;39432;51.902;10.844;2023-05-07T06:41:42;100119.91;;;9.76;100.00
53546;BME280;39432;51.902;10.844;2023-05-07T06:44:22;100119.56;;;9.85;100.00
53546;BME280;39432;51.902;10.844;2023-05-07T06:47:02;100120.91;;;10.11;100.00
53546;BME280;39432;51.902;10.844;2023-05-07T06:49:32;100123.66;;;9.99;100.00
53546;BME280;39432;51.902;10.844;2023-05-07T06:52:02;100125.34;;;10.00;100.00
53546;BME280;39432;51.902;10.844;2023-05-07T06:54:33;100132.19;;;10.14;100.00
53546;BME280;39432;51.902;10.844;2023-05-07T06:57:05;100130.00;;;9.88;100.00
53546;BME280;39432;51.902;10.844;2023-05-07T06:59:35;100131.22;;;10.20;100.00
53546;BME280;39432;51.902;10.844;2023-05-07T07:02:05;100131.16;;;10.03;100.00
53546;BME280;39432;51.902;10.844;2023-05-07T07:04:36;100130.94;;;9.93;100.00
53546;BME280;39432;51.902;10.844;2023-05-07T07:07:09;100127.88;;;9.66;100.00
53546;BME280;39432;51.902;10.844;2023-05-07T07:09:40;100135.09;;;9.96;100.00
53546;BME280;39432;51.902;10.844;2023-05-07T07:12:13;100136.28;;;10.00;100.00
53546;BME280;39432;51.902;10.844;2023-05-07T07:14:43;100133.53;;;10.23;100.00
53546;BME280;39432;51.902;10.844;2023-05-07T07:17:14;100135.50;;;10.16;100.00
53546;BME280;39432;51.902;10.844;2023-05-07T07:19:44;100127.88;;;10.42;100.00
53546;BME280;39432;51.902;10.844;2023-05-07T07:22:14;100127.22;;;10.11;100.00
53546;BME280;39432;51.902;10.844;2023-05-07T07:24:43;100140.06;;;9.99;100.00
53546;BME280;39432;51.902;10.844;2023-05-07T07:27:18;100141.75;;;10.00;100.00
53546;BME280;39432;51.902;10.844;2023-05-07T07:29:49;100132.66;;;10.23;100.00
53546;BME280;39432;51.902;10.844;2023-05-07T07:32:19;100142.41;;;10.19;100.00
53546;BME280;39432;51.902;10.844;2023-05-07T07:34:49;100129.09;;;10.22;100.00
53546;BME280;39432;51.902;10.844;2023-05-07T07:37:19;100121.72;;;10.35;100.00
53546;BME280;39432;51.902;10.844;2023-05-07T07:39:49;100137.44;;;10.27;100.00
53546;BME280;39432;51.902;10.844;2023-05-07T07:42:22;100137.75;;;10.71;100.00
53546;BME280;39432;51.902;10.844;2023-05-07T07:44:53;100127.16;;;10.92;100.00
53546;BME280;39432;51.902;10.844;2023-05-07T07:47:28;100124.38;;;10.75;100.00
53546;BME280;39432;51.902;10.844;2023-05-07T07:49:58;100129.03;;;10.46;100.00
53546;BME280;39432;51.902;10.844;2023-05-07T07:52:28;100132.75;;;10.68;100.00
53546;BME280;39432;51.902;10.844;2023-05-07T07:54:58;100127.66;;;10.89;100.00
53546;BME280;39432;51.902;10.844;2023-05-07T07:57:32;100134.78;;;10.90;100.00
53546;BME280;39432;51.902;10.844;2023-05-07T08:00:05;100129.41;;;10.38;100.00
53546;BME280;39432;51.902;10.844;2023-05-07T08:02:42;100138.13;;;10.35;100.00
53546;BME280;39432;51.902;10.844;2023-05-07T08:05:19;100140.34;;;10.49;100.00
53546;BME280;39432;51.902;10.844;2023-05-07T08:07:50;100155.72;;;10.15;100.00
53546;BME280;39432;51.902;10.844;2023-05-07T08:10:25;100152.88;;;10.34;100.00
53546;BME280;39432;51.902;10.844;2023-05-07T08:13:05;100152.44;;;10.53;100.00
53546;BME280;39432;51.902;10.844;2023-05-07T08:15:37;100151.88;;;10.51;100.00
53546;BME280;39432;51.902;10.844;2023-05-07T08:18:07;100155.63;;;10.62;100.00
53546;BME280;39432;51.902;10.844;2023-05-07T08:20:38;100147.66;;;10.89;100.00
53546;BME280;39432;51.902;10.844;2023-05-07T08:23:14;100156.91;;;10.19;100.00
53546;BME280;39432;51.902;10.844;2023-05-07T08:25:44;100159.19;;;10.34;100.00
53546;BME280;39432;51.902;10.844;2023-05-07T08:28:18;100162.03;;;10.68;100.00
53546;BME280;39432;51.902;10.844;2023-05-07T08:30:48;100154.19;;;10.19;100.00
53546;BME280;39432;51.902;10.844;2023-05-07T08:33:18;100160.84;;;10.35;100.00
53546;BME280;39432;51.902;10.844;2023-05-07T08:35:48;100158.66;;;10.77;100.00
53546;BME280;39432;51.902;10.844;2023-05-07T08:38:18;100160.91;;;10.52;100.00
53546;BME280;39432;51.902;10.844;2023-05-07T08:40:48;100154.16;;;10.71;100.00
53546;BME280;39432;51.902;10.844;2023-05-07T08:43:26;100157.84;;;10.77;100.00
53546;BME280;39432;51.902;10.844;2023-05-07T08:46:00;100158.81;;;10.88;100.00
53546;BME280;39432;51.902;10.844;2023-05-07T08:48:35;100153.69;;;10.91;100.00
53546;BME280;39432;51.902;10.844;2023-05-07T08:51:12;100158.56;;;10.72;100.00
53546;BME280;39432;51.902;10.844;2023-05-07T08:53:42;100172.44;;;10.82;100.00
53546;BME280;39432;51.902;10.844;2023-05-07T08:56:17;100168.09;;;10.29;100.00
53546;BME280;39432;51.902;10.844;2023-05-07T08:58:52;100162.47;;;10.93;100.00
53546;BME280;39432;51.902;10.844;2023-05-07T09:01:24;100162.03;;;11.13;100.00
53546;BME280;39432;51.902;10.844;2023-05-07T09:03:56;100150.59;;;11.16;100.00
53546;BME280;39432;51.902;10.844;2023-05-07T09:06:27;100152.41;;;11.11;100.00
53546;BME280;39432;51.902;10.844;2023-05-07T09:08:58;100152.88;;;11.07;100.00
53546;BME280;39432;51.902;10.844;2023-05-07T09:11:29;100148.50;;;11.23;100.00
53546;BME280;39432;51.902;10.844;2023-05-07T09:14:03;100144.59;;;11.19;100.00
53546;BME280;39432;51.902;10.844;2023-05-07T09:16:38;100142.75;;;10.91;100.00
53546;BME280;39432;51.902;10.844;2023-05-07T09:19:09;100145.94;;;11.00;100.00
53546;BME280;39432;51.902;10.844;2023-05-07T09:21:44;100144.38;;;10.75;100.00
53546;BME280;39432;51.902;10.844;2023-05-07T09:24:15;100148.09;;;10.41;100.00
53546;BME280;39432;51.902;10.844;2023-05-07T09:26:45;100157.34;;;10.51;100.00
53546;BME280;39432;51.902;10.844;2023-05-07T09:29:18;100161.09;;;10.62;100.00
53546;BME280;39432;51.902;10.844;2023-05-07T09:31:48;100161.56;;;10.59;100.00
53546;BME280;39432;51.902;10.844;2023-05-07T09:34:18;100162.16;;;10.90;100.00
53546;BME280;39432;51.902;10.844;2023-05-07T09:36:52;100167.41;;;11.08;100.00
53546;BME280;39432;51.902;10.844;2023-05-07T09:39:23;100160.38;;;11.12;100.00
53546;BME280;39432;51.902;10.844;2023-05-07T09:41:53;100170.81;;;11.15;100.00
53546;BME280;39432;51.902;10.844;2023-05-07T09:44:34;100174.56;;;10.80;100.00
53546;BME280;39432;51.902;10.844;2023-05-07T09:47:10;100176.00;;;11.28;100.00
53546;BME280;39432;51.902;10.844;2023-05-07T09:49:46;100164.22;;;10.82;100.00
53546;BME280;39432;51.902;10.844;2023-05-07T09:52:19;100164.38;;;10.93;100.00
53546;BME280;39432;51.902;10.844;2023-05-07T09:54:53;100171.81;;;11.09;100.00
53546;BME280;39432;51.902;10.844;2023-05-07T09:57:28;100171.66;;;10.99;100.00
53546;BME280;39432;51.902;10.844;2023-05-07T10:00:07;100159.34;;;11.01;100.00
53546;BME280;39432;51.902;10.844;2023-05-07T10:02:48;100172.59;;;11.21;100.00
53546;BME280;39432;51.902;10.844;2023-05-07T10:05:27;100168.34;;;11.30;100.00
53546;BME280;39432;51.902;10.844;2023-05-07T10:07:59;100166.75;;;11.01;100.00
53546;BME280;39432;51.902;10.844;2023-05-07T10:10:33;100162.34;;;11.00;100.00
53546;BME280;39432;51.902;10.844;2023-05-07T10:13:06;100158.09;;;11.09;100.00
53546;BME280;39432;51.902;10.844;2023-05-07T10:15:44;100164.00;;;11.01;100.00
53546;BME280;39432;51.902;10.844;2023-05-07T10:18:15;100166.09;;;11.61;100.00
53546;BME280;39432;51.902;10.844;2023-05-07T10:20:48;100167.47;;;11.80;100.00
53546;BME280;39432;51.902;10.844;2023-05-07T10:23:23;100165.28;;;11.44;100.00
53546;BME280;39432;51.902;10.844;2023-05-07T10:25:58;100169.34;;;11.24;100.00
53546;BME280;39432;51.902;10.844;2023-05-07T10:28:34;100169.84;;;11.38;100.00
53546;BME280;39432;51.902;10.844;2023-05-07T10:31:29;100171.34;;;11.46;100.00
53546;BME280;39432;51.902;10.844;2023-05-07T10:34:08;100168.69;;;11.51;100.00
53546;BME280;39432;51.902;10.844;2023-05-07T10:36:40;100170.75;;;11.10;100.00
53546;BME280;39432;51.902;10.844;2023-05-07T10:39:10;100164.69;;;11.25;100.00
53546;BME280;39432;51.902;10.844;2023-05-07T10:41:40;100163.94;;;11.63;100.00
53546;BME280;39432;51.902;10.844;2023-05-07T10:44:10;100162.03;;;11.47;100.00
53546;BME280;39432;51.902;10.844;2023-05-07T10:47:05;100152.84;;;11.92;100.00
53546;BME280;39432;51.902;10.844;2023-05-07T10:50:22;100158.88;;;11.89;100.00
53546;BME280;39432;51.902;10.844;2023-05-07T10:53:23;100151.97;;;11.69;100.00
53546;BME280;39432;51.902;10.844;2023-05-07T10:56:24;100148.47;;;12.34;100.00
53546;BME280;39432;51.902;10.844;2023-05-07T10:59:33;100146.63;;;12.18;100.00
53546;BME280;39432;51.902;10.844;2023-05-07T11:05:46;100159.91;;;12.48;100.00
53546;BME280;39432;51.902;10.844;2023-05-07T11:08:22;100150.03;;;11.86;100.00
53546;BME280;39432;51.902;10.844;2023-05-07T11:11:01;100142.94;;;12.29;100.00
53546;BME280;39432;51.902;10.844;2023-05-07T11:13:42;100160.19;;;11.69;100.00
53546;BME280;39432;51.902;10.844;2023-05-07T11:16:33;100161.97;;;11.97;100.00
53546;BME280;39432;51.902;10.844;2023-05-07T11:19:50;100155.81;;;12.07;100.00
53546;BME280;39432;51.902;10.844;2023-05-07T11:22:46;100162.47;;;12.55;100.00
53546;BME280;39432;51.902;10.844;2023-05-07T11:25:27;100159.53;;;11.62;100.00
53546;BME280;39432;51.902;10.844;2023-05-07T11:28:07;100160.81;;;12.10;100.00
53546;BME280;39432;51.902;10.844;2023-05-07T11:30:53;100150.53;;;12.22;100.00
53546;BME280;39432;51.902;10.844;2023-05-07T11:33:24;100156.44;;;12.14;100.00
53546;BME280;39432;51.902;10.844;2023-05-07T11:35:59;100156.78;;;12.18;100.00
53546;BME280;39432;51.902;10.844;2023-05-07T11:38:35;100157.03;;;12.38;100.00
53546;BME280;39432;51.902;10.844;2023-05-07T11:41:07;100151.72;;;12.75;100.00
53546;BME280;39432;51.902;10.844;2023-05-07T11:43:37;100153.66;;;12.53;100.00
53546;BME280;39432;51.902;10.844;2023-05-07T11:46:08;100148.63;;;12.23;100.00
53546;BME280;39432;51.902;10.844;2023-05-07T11:48:39;100153.00;;;12.02;100.00
53546;BME280;39432;51.902;10.844;2023-05-07T11:51:12;100152.94;;;12.19;100.00
53546;BME280;39432;51.902;10.844;2023-05-07T11:53:43;100161.16;;;11.97;100.00
53546;BME280;39432;51.902;10.844;2023-05-07T11:56:15;100166.63;;;11.97;100.00
53546;BME280;39432;51.902;10.844;2023-05-07T11:58:46;100154.28;;;12.60;100.00
53546;BME280;39432;51.902;10.844;2023-05-07T12:01:17;100156.84;;;12.45;100.00
53546;BME280;39432;51.902;10.844;2023-05-07T12:03:47;100158.47;;;12.02;100.00
53546;BME280;39432;51.902;10.844;2023-05-07T12:06:20;100156.34;;;12.04;100.00
53546;BME280;39432;51.902;10.844;2023-05-07T12:08:50;100163.28;;;12.33;100.00
53546;BME280;39432;51.902;10.844;2023-05-07T12:11:23;100160.94;;;12.20;100.00
53546;BME280;39432;51.902;10.844;2023-05-07T12:13:54;100163.16;;;12.23;100.00
53546;BME280;39432;51.902;10.844;2023-05-07T12:16:25;100176.13;;;12.50;100.00
53546;BME280;39432;51.902;10.844;2023-05-07T12:18:56;100166.78;;;12.51;100.00
53546;BME280;39432;51.902;10.844;2023-05-07T12:21:29;100178.59;;;12.29;100.00
53546;BME280;39432;51.902;10.844;2023-05-07T12:23:59;100173.31;;;12.45;100.00
53546;BME280;39432;51.902;10.844;2023-05-07T12:26:28;100172.00;;;12.08;100.00
53546;BME280;39432;51.902;10.844;2023-05-07T12:28:58;100182.75;;;12.10;100.00
53546;BME280;39432;51.902;10.844;2023-05-07T12:31:28;100175.44;;;12.37;100.00
53546;BME280;39432;51.902;10.844;2023-05-07T12:33:58;100180.00;;;12.10;100.00
53546;BME280;39432;51.902;10.844;2023-05-07T12:36:38;100170.13;;;12.09;100.00
53546;BME280;39432;51.902;10.844;2023-05-07T12:39:09;100170.22;;;12.19;100.00
53546;BME280;39432;51.902;10.844;2023-05-07T12:41:55;100170.16;;;12.14;100.00
53546;BME280;39432;51.902;10.844;2023-05-07T12:44:28;100181.81;;;11.82;100.00
53546;BME280;39432;51.902;10.844;2023-05-07T12:47:01;100177.03;;;11.95;100.00
53546;BME280;39432;51.902;10.844;2023-05-07T12:49:31;100174.19;;;12.28;100.00
53546;BME280;39432;51.902;10.844;2023-05-07T12:52:08;100177.06;;;12.17;100.00
53546;BME280;39432;51.902;10.844;2023-05-07T12:54:38;100182.19;;;12.30;100.00
53546;BME280;39432;51.902;10.844;2023-05-07T12:57:09;100180.44;;;12.46;100.00
53546;BME280;39432;51.902;10.844;2023-05-07T12:59:40;100172.28;;;12.07;100.00
53546;BME280;39432;51.902;10.844;2023-05-07T13:02:11;100182.34;;;12.01;100.00
53546;BME280;39432;51.902;10.844;2023-05-07T13:04:41;100191.44;;;11.85;100.00
53546;BME280;39432;51.902;10.844;2023-05-07T13:07:15;100183.38;;;12.17;100.00